Time;durP1;ratioP1;P1;durP2;ratioP2;P2;SDS_P1;SDS_P2;PMS_P1;PMS_P2;Temp;Humidity;BMP_temperature;BMP_pressure;BME280_temperature;BME280_humidity;BME280_pressure;Samples;Min_cycle;Max_cycle;Signal;HPM_P1;HPM_P2
2021/05/31 00:10:07;;;;;;;5.83;5.63;;;14.00;62.60;;;;;;5651808;23;20467;-90
2021/05/31 00:12:43;;;;;;;6.20;5.90;;;14.10;64.10;;;;;;5017957;28;20483;-90
2021/05/31 00:30:42;;;;;;;6.37;5.67;;;13.80;64.40;;;;;;5319313;23;20553;-90
2021/05/31 00:33:08;;;;;;;6.53;6.10;;;13.70;65.80;;;;;;5037612;28;20407;-89
2021/05/31 00:35:36;;;;;;;5.70;5.40;;;13.60;67.60;;;;;;5037624;28;20471;-90
2021/05/31 00:38:02;;;;;;;5.80;5.40;;;13.70;66.50;;;;;;5020833;28;20447;-89
2021/05/31 00:40:28;;;;;;;5.90;5.60;;;13.60;68.10;;;;;;5020899;28;20424;-90
2021/05/31 02:01:33;;;;;;;7.13;6.60;;;12.30;75.60;;;;;;6061055;23;20400;-89
2021/05/31 03:19:10;;;;;;;7.50;6.93;;;12.00;77.30;;;;;;5588324;23;20753;-86
2021/05/31 03:24:37;;;;;;;7.13;6.63;;;12.00;77.00;;;;;;5512725;23;20624;-87
2021/05/31 03:27:03;;;;;;;7.57;7.00;;;11.70;79.40;;;;;;4996781;28;20432;-89
2021/05/31 03:29:29;;;;;;;7.90;7.30;;;12.40;80.30;;;;;;4980989;28;20429;-90
2021/05/31 03:31:56;;;;;;;7.13;6.73;;;12.40;78.70;;;;;;4998879;28;20417;-90
2021/05/31 03:37:00;;;;;;;9.23;8.50;;;12.00;76.50;;;;;;5255225;23;20531;-88
2021/05/31 03:42:01;;;;;;;8.13;7.53;;;11.90;76.90;;;;;;5663664;23;20484;-88
2021/05/31 03:49:38;;;;;;;7.90;7.30;;;11.80;77.30;;;;;;5596424;23;20489;-90
2021/05/31 04:02:33;;;;;;;7.30;6.70;;;11.80;77.80;;;;;;5907364;23;20689;-89
2021/05/31 04:04:59;;;;;;;8.50;7.33;;;12.20;79.90;;;;;;5000396;28;20461;-90
2021/05/31 04:15:40;;;;;;;8.60;7.90;;;11.80;77.40;;;;;;5371819;23;20493;-89
2021/05/31 04:20:54;;;;;;;8.57;7.87;;;11.80;77.80;;;;;;5189914;23;20554;-88
2021/05/31 04:31:07;;;;;;;8.83;7.53;;;12.00;76.40;;;;;;5181278;23;20276;-87
2021/05/31 04:33:33;;;;;;;7.27;6.70;;;13.50;79.20;;;;;;5392136;23;20560;-87
2021/05/31 04:36:01;;;;;;;8.03;7.43;;;12.20;78.60;;;;;;5020238;28;20417;-90
2021/05/31 04:38:27;;;;;;;7.53;7.03;;;12.60;77.20;;;;;;5016951;28;20174;-88
2021/05/31 04:40:55;;;;;;;7.40;6.70;;;12.20;75.90;;;;;;5015826;28;20416;-90
2021/05/31 04:43:22;;;;;;;7.13;6.63;;;12.50;75.70;;;;;;4994524;28;20439;-90
2021/05/31 04:45:48;;;;;;;7.30;6.73;;;13.30;74.80;;;;;;5007643;28;20443;-89
2021/05/31 04:48:17;;;;;;;7.20;6.70;;;13.10;72.30;;;;;;5009326;28;20474;-89
2021/05/31 04:50:43;;;;;;;6.30;5.83;;;15.00;74.50;;;;;;5004795;28;20475;-90
2021/05/31 04:53:09;;;;;;;8.80;7.60;;;15.10;71.90;;;;;;5006716;28;20412;-90
2021/05/31 04:55:36;;;;;;;7.57;7.00;;;13.60;68.70;;;;;;5004928;28;20181;-90
2021/05/31 04:58:02;;;;;;;8.10;7.43;;;15.50;69.70;;;;;;5003352;28;20183;-88
2021/05/31 05:00:28;;;;;;;8.20;7.60;;;14.40;66.80;;;;;;5006188;28;20486;-90
2021/05/31 05:02:53;;;;;;;8.07;7.03;;;14.90;65.30;;;;;;5023200;28;20425;-90
2021/05/31 05:05:19;;;;;;;7.37;6.90;;;14.90;64.40;;;;;;5006045;28;20185;-89
2021/05/31 05:07:47;;;;;;;7.43;6.90;;;15.90;64.60;;;;;;4312690;28;10000708;-90
2021/05/31 05:10:18;;;;;;;6.73;6.33;;;15.40;62.10;;;;;;5001674;28;20178;-90
2021/05/31 05:12:45;;;;;;;7.10;6.60;;;15.60;61.30;;;;;;5000698;28;20429;-87
2021/05/31 05:15:12;;;;;;;7.60;6.90;;;16.50;61.70;;;;;;4986562;28;20468;-90
2021/05/31 05:17:41;;;;;;;7.63;7.00;;;16.00;59.60;;;;;;4998663;28;20413;-89
2021/05/31 05:20:08;;;;;;;7.23;6.73;;;15.90;58.80;;;;;;4996820;28;20516;-88
2021/05/31 05:22:33;;;;;;;7.33;6.73;;;16.40;58.50;;;;;;4988545;28;20414;-90
2021/05/31 05:24:59;;;;;;;7.53;7.03;;;17.60;58.80;;;;;;5008343;28;20433;-89
2021/05/31 05:27:25;;;;;;;8.00;7.50;;;15.80;57.30;;;;;;5010566;28;20286;-90
2021/05/31 05:29:50;;;;;;;9.33;8.43;;;16.90;57.10;;;;;;4996228;28;20193;-90
2021/05/31 05:32:17;;;;;;;7.07;6.67;;;17.60;57.00;;;;;;4993351;28;20178;-86
2021/05/31 05:34:43;;;;;;;7.13;6.43;;;17.30;56.50;;;;;;4982392;28;20288;-90
2021/05/31 05:37:13;;;;;;;7.50;6.80;;;17.70;57.00;;;;;;4981537;28;20773;-90
2021/05/31 05:45:27;;;;;;;7.93;7.33;;;18.50;54.20;;;;;;5015932;28;20448;-90
2021/05/31 05:47:56;;;;;;;7.87;7.20;;;18.70;53.70;;;;;;5015548;28;20429;-92
2021/05/31 05:50:22;;;;;;;12.57;8.07;;;19.10;53.70;;;;;;5005505;28;20439;-87
2021/05/31 05:52:51;;;;;;;8.37;7.77;;;20.60;53.30;;;;;;5009604;28;20315;-92
2021/05/31 05:55:18;;;;;;;9.40;6.40;;;19.70;51.70;;;;;;4995383;28;20488;-92
2021/05/31 05:57:47;;;;;;;7.20;6.70;;;20.70;51.40;;;;;;5016106;28;20475;-87
2021/05/31 06:00:53;;;;;;;7.80;7.30;;;20.00;49.90;;;;;;5014075;28;20515;-93
2021/05/31 06:03:25;;;;;;;7.47;6.87;;;21.00;49.50;;;;;;5013760;28;20429;-92
2021/05/31 06:05:51;;;;;;;7.17;6.67;;;21.30;48.70;;;;;;5008389;28;20483;-88
2021/05/31 06:08:17;;;;;;;7.63;7.03;;;21.40;48.60;;;;;;5012860;28;20512;-91
2021/05/31 06:10:47;;;;;;;8.43;7.70;;;21.20;47.40;;;;;;4997004;28;20184;-94
2021/05/31 06:13:14;;;;;;;11.80;7.90;;;21.70;46.00;;;;;;5009404;28;20421;-89
2021/05/31 06:15:40;;;;;;;7.03;6.43;;;23.10;46.80;;;;;;4995384;28;20435;-86
2021/05/31 06:18:06;;;;;;;8.20;7.57;;;21.80;44.70;;;;;;4998659;28;20712;-89
2021/05/31 06:20:34;;;;;;;9.17;8.37;;;22.60;44.20;;;;;;5002617;28;20543;-89
2021/05/31 06:23:00;;;;;;;8.57;7.97;;;22.60;44.10;;;;;;5019834;28;20489;-89
2021/05/31 06:25:26;;;;;;;8.10;7.40;;;22.50;44.10;;;;;;5022937;28;20972;-91
2021/05/31 06:27:52;;;;;;;9.33;8.30;;;22.60;44.40;;;;;;5021809;28;20169;-89
2021/05/31 06:30:19;;;;;;;9.30;8.60;;;22.30;44.50;;;;;;5018387;28;20428;-91
2021/05/31 06:32:44;;;;;;;9.70;8.70;;;22.60;44.30;;;;;;5017987;28;20228;-89
2021/05/31 06:35:10;;;;;;;8.43;7.83;;;23.20;43.50;;;;;;5018420;28;20463;-84
2021/05/31 06:37:39;;;;;;;8.60;8.20;;;23.30;43.30;;;;;;5015333;28;20161;-88
2021/05/31 06:40:07;;;;;;;8.20;7.70;;;24.00;42.90;;;;;;5013620;28;20420;-87
2021/05/31 06:42:33;;;;;;;8.63;8.13;;;24.00;42.20;;;;;;5015045;28;20465;-89
2021/05/31 06:44:58;;;;;;;11.03;9.93;;;24.20;41.50;;;;;;5015253;28;20416;-90
2021/05/31 06:47:25;;;;;;;7.90;7.30;;;24.20;41.80;;;;;;5016805;28;20223;-90
2021/05/31 06:55:17;;;;;;;8.17;7.70;;;26.30;40.50;;;;;;5004755;28;20542;-89
2021/05/31 06:57:47;;;;;;;8.73;8.13;;;26.30;40.50;;;;;;5001180;28;20424;-91
2021/05/31 07:00:13;;;;;;;10.37;7.70;;;25.30;39.30;;;;;;4988998;28;20424;-94
2021/05/31 07:02:39;;;;;;;9.33;8.47;;;25.60;39.50;;;;;;4985919;28;20421;-91
2021/05/31 07:05:08;;;;;;;9.67;8.63;;;25.60;39.00;;;;;;5006430;28;20472;-92
2021/05/31 07:07:34;;;;;;;8.93;8.20;;;25.70;39.10;;;;;;4988337;28;20223;-93
2021/05/31 07:10:00;;;;;;;8.97;8.27;;;26.50;38.90;;;;;;4989776;28;20896;-90
2021/05/31 07:12:29;;;;;;;8.60;7.90;;;26.00;38.60;;;;;;4991420;28;20428;-87
2021/05/31 07:14:59;;;;;;;10.40;8.30;;;26.50;38.30;;;;;;5009831;28;20468;-91
2021/05/31 07:17:36;;;;;;;8.30;7.80;;;26.20;38.20;;;;;;5006003;28;20416;-91
2021/05/31 07:20:10;;;;;;;9.13;8.33;;;26.30;37.90;;;;;;5008262;28;20971;-89
2021/05/31 07:22:38;;;;;;;8.43;7.70;;;26.50;37.80;;;;;;4993416;28;20420;-90
2021/05/31 07:25:10;;;;;;;9.80;8.90;;;27.10;36.70;;;;;;5012260;28;20440;-93
2021/05/31 07:27:37;;;;;;;8.37;7.77;;;27.10;36.60;;;;;;5011913;28;20413;-89
2021/05/31 07:30:11;;;;;;;8.63;7.97;;;26.10;36.60;;;;;;5030081;23;20555;-89
2021/05/31 07:32:39;;;;;;;8.60;8.10;;;27.30;36.10;;;;;;5010312;28;20419;-92
2021/05/31 07:35:07;;;;;;;8.23;7.63;;;27.00;36.50;;;;;;4993396;28;20487;-93
2021/05/31 07:37:39;;;;;;;8.67;7.90;;;27.30;35.60;;;;;;4993343;28;20416;-91
2021/05/31 07:40:17;;;;;;;8.57;7.67;;;27.70;35.30;;;;;;4993601;28;20401;-91
2021/05/31 07:42:43;;;;;;;8.93;8.43;;;28.30;34.60;;;;;;5010461;28;20460;-90
2021/05/31 07:45:13;;;;;;;8.30;7.27;;;28.90;33.60;;;;;;4994492;28;20762;-91
2021/05/31 07:47:40;;;;;;;7.93;7.17;;;29.40;32.80;;;;;;4986387;28;20456;-91
2021/05/31 07:50:15;;;;;;;8.67;8.00;;;29.20;32.40;;;;;;4979235;28;20456;-92
2021/05/31 07:52:51;;;;;;;8.87;7.87;;;28.50;32.70;;;;;;4987227;28;20420;-91
2021/05/31 07:55:18;;;;;;;7.60;6.90;;;28.90;32.70;;;;;;5003094;28;20484;-90
2021/05/31 07:57:45;;;;;;;8.90;8.20;;;29.10;32.50;;;;;;4986078;28;20516;-91
2021/05/31 08:00:18;;;;;;;6.80;6.50;;;28.60;32.30;;;;;;5003377;28;20413;-88
2021/05/31 08:02:44;;;;;;;7.63;7.23;;;29.10;32.50;;;;;;5002144;28;20419;-88
2021/05/31 08:05:14;;;;;;;7.00;6.53;;;29.50;32.70;;;;;;4985134;28;20512;-89
2021/05/31 08:07:42;;;;;;;7.17;6.63;;;29.30;32.00;;;;;;4990552;28;20787;-89
2021/05/31 08:10:08;;;;;;;8.00;7.40;;;29.80;32.20;;;;;;4987570;28;20911;-91
2021/05/31 08:12:35;;;;;;;7.30;6.77;;;30.50;31.10;;;;;;4990673;28;20420;-89
2021/05/31 08:15:02;;;;;;;10.07;7.03;;;29.60;31.50;;;;;;4991756;28;20480;-91
2021/05/31 08:17:27;;;;;;;7.23;6.80;;;29.80;31.40;;;;;;4987465;28;20446;-91
2021/05/31 08:19:53;;;;;;;7.30;6.90;;;29.60;30.90;;;;;;4989629;28;20436;-90
2021/05/31 08:22:19;;;;;;;7.23;6.83;;;29.50;31.50;;;;;;4988726;28;20173;-89
2021/05/31 08:24:44;;;;;;;8.70;8.07;;;31.10;31.70;;;;;;4989254;28;20177;-89
2021/05/31 08:27:16;;;;;;;6.47;6.17;;;30.80;29.50;;;;;;4992747;28;20166;-89
2021/05/31 08:29:42;;;;;;;10.33;7.10;;;30.60;29.80;;;;;;4989327;28;20221;-90
2021/05/31 08:32:10;;;;;;;6.10;5.70;;;30.10;29.90;;;;;;4990335;28;20527;-89
2021/05/31 08:34:36;;;;;;;7.63;6.90;;;30.30;30.00;;;;;;4984897;28;20238;-90
2021/05/31 08:37:01;;;;;;;7.57;7.23;;;30.00;29.80;;;;;;4984723;28;20445;-89
2021/05/31 08:39:27;;;;;;;7.00;6.60;;;31.10;29.70;;;;;;4988443;28;20193;-90
2021/05/31 08:41:55;;;;;;;6.77;6.37;;;31.50;29.50;;;;;;4986136;28;20174;-92
2021/05/31 08:44:20;;;;;;;7.57;6.40;;;32.30;29.50;;;;;;4990620;28;20178;-89
2021/05/31 08:46:46;;;;;;;5.97;5.73;;;31.40;27.70;;;;;;4987724;28;20424;-89
2021/05/31 08:49:12;;;;;;;7.37;7.00;;;31.20;28.20;;;;;;4983831;28;20174;-88
2021/05/31 08:51:38;;;;;;;7.13;6.60;;;32.20;28.50;;;;;;4981638;28;20173;-89
2021/05/31 08:54:05;;;;;;;7.50;6.40;;;32.40;28.50;;;;;;4979196;28;20321;-88
2021/05/31 08:56:31;;;;;;;7.03;6.00;;;32.20;28.10;;;;;;4979689;28;20560;-87
2021/05/31 08:58:57;;;;;;;8.57;6.20;;;32.20;28.50;;;;;;4977453;28;20468;-90
2021/05/31 09:01:24;;;;;;;8.60;5.90;;;30.50;28.90;;;;;;4978646;28;20185;-87
2021/05/31 09:03:52;;;;;;;8.20;6.70;;;30.30;28.70;;;;;;4979190;28;20421;-91
2021/05/31 09:06:18;;;;;;;6.10;5.70;;;29.40;29.30;;;;;;4978495;28;20414;-91
2021/05/31 09:09:02;;;;;;;6.80;6.23;;;28.90;29.50;;;;;;4978286;28;20417;-91
2021/05/31 09:11:32;;;;;;;7.50;7.00;;;30.50;30.00;;;;;;4977895;28;20553;-92
2021/05/31 09:13:59;;;;;;;6.93;6.43;;;30.50;29.40;;;;;;4979734;28;20496;-92
2021/05/31 09:16:28;;;;;;;7.83;6.83;;;32.00;29.50;;;;;;4979136;28;20421;-92
2021/05/31 09:18:58;;;;;;;6.47;6.13;;;31.80;28.30;;;;;;4990548;28;21015;-89
2021/05/31 09:21:32;;;;;;;6.12;5.68;;;32.50;28.10;;;;;;4632006;28;9999823;-89
2021/05/31 09:24:14;;;;;;;6.23;5.57;;;32.20;26.90;;;;;;4958555;28;20678;-92
2021/05/31 09:26:44;;;;;;;5.67;5.37;;;32.20;27.40;;;;;;4964146;29;20433;-89
2021/05/31 09:29:12;;;;;;;6.37;6.00;;;32.50;28.00;;;;;;4969142;28;20415;-92
2021/05/31 09:31:38;;;;;;;10.40;5.73;;;30.80;28.50;;;;;;4971575;28;20425;-92
2021/05/31 09:34:08;;;;;;;7.20;6.50;;;31.80;28.90;;;;;;4965940;28;20472;-93
2021/05/31 09:36:49;;;;;;;5.30;5.00;;;32.20;27.90;;;;;;4962615;28;20425;-94
2021/05/31 09:39:27;;;;;;;5.43;5.20;;;33.00;27.10;;;;;;4966767;28;20496;-95
2021/05/31 09:42:49;;;;;;;7.07;6.50;;;32.80;26.80;;;;;;4974837;28;20429;-91
2021/05/31 09:45:17;;;;;;;5.90;5.60;;;32.60;27.30;;;;;;4937686;28;20424;-90
2021/05/31 09:47:43;;;;;;;6.27;5.90;;;33.60;26.60;;;;;;5190182;23;20463;-92
2021/05/31 09:50:09;;;;;;;7.23;6.83;;;34.40;27.20;;;;;;5152625;23;20477;-90
2021/05/31 09:52:36;;;;;;;6.53;6.23;;;34.70;26.30;;;;;;4995048;28;20924;-92
2021/05/31 09:55:14;;;;;;;6.83;6.27;;;32.90;26.70;;;;;;5102601;23;20509;-89
2021/05/31 10:02:59;;;;;;;5.83;5.37;;;33.10;27.10;;;;;;5008922;28;20499;-91
2021/05/31 10:05:49;;;;;;;6.23;5.60;;;34.20;27.00;;;;;;5010345;28;20463;-91
2021/05/31 10:10:45;;;;;;;8.10;7.40;;;34.10;27.20;;;;;;5003140;28;20425;-93
2021/05/31 10:13:11;;;;;;;5.63;5.43;;;34.20;27.00;;;;;;5003729;28;20541;-88
2021/05/31 10:15:42;;;;;;;6.70;6.33;;;34.80;26.60;;;;;;5006711;28;20479;-87
2021/05/31 10:18:10;;;;;;;6.10;5.80;;;33.80;26.20;;;;;;4992659;28;20409;-86
2021/05/31 10:20:37;;;;;;;5.80;5.30;;;32.60;26.80;;;;;;4991112;28;20436;-85
2021/05/31 10:23:04;;;;;;;7.70;7.30;;;32.50;27.20;;;;;;4991652;28;20416;-86
2021/05/31 10:25:30;;;;;;;6.43;5.90;;;31.50;27.40;;;;;;4992257;28;20524;-86
2021/05/31 10:28:09;;;;;;;7.07;6.53;;;31.50;27.80;;;;;;4992939;28;20432;-86
2021/05/31 10:30:43;;;;;;;7.73;7.23;;;31.30;28.00;;;;;;4976233;28;20836;-86
2021/05/31 10:33:16;;;;;;;7.17;6.77;;;30.20;27.90;;;;;;4982976;28;20429;-87
2021/05/31 10:35:42;;;;;;;7.50;6.40;;;29.60;29.00;;;;;;4990398;28;20545;-86
2021/05/31 10:38:19;;;;;;;7.30;6.73;;;29.90;28.90;;;;;;4992082;28;20977;-85
2021/05/31 10:40:48;;;;;;;7.57;7.17;;;29.30;29.00;;;;;;4990600;28;20471;-85
2021/05/31 10:43:16;;;;;;;8.00;6.80;;;28.70;29.40;;;;;;4990525;28;20417;-85
2021/05/31 10:45:42;;;;;;;7.63;6.70;;;28.90;29.80;;;;;;4989634;28;20519;-85
2021/05/31 10:48:21;;;;;;;7.60;7.10;;;30.00;29.20;;;;;;4994121;28;20412;-85
2021/05/31 10:50:51;;;;;;;7.60;7.00;;;31.20;28.20;;;;;;4995427;28;20444;-85
2021/05/31 10:53:20;;;;;;;6.80;6.40;;;31.80;27.80;;;;;;4996646;28;20413;-85
2021/05/31 10:56:10;;;;;;;7.27;6.70;;;32.30;27.50;;;;;;4995286;28;20538;-85
2021/05/31 10:58:45;;;;;;;6.70;6.40;;;32.30;27.40;;;;;;4995507;28;20427;-83
2021/05/31 11:01:13;;;;;;;7.23;6.77;;;30.90;28.00;;;;;;4995434;28;20928;-84
2021/05/31 11:03:53;;;;;;;7.33;6.97;;;30.60;28.70;;;;;;4994778;28;20436;-83
2021/05/31 11:06:26;;;;;;;7.20;6.70;;;31.40;28.30;;;;;;4993984;28;20428;-84
2021/05/31 11:08:54;;;;;;;9.87;9.03;;;32.50;27.60;;;;;;4991858;28;20432;-84
2021/05/31 11:11:27;;;;;;;7.97;6.70;;;32.40;26.90;;;;;;4990706;28;20486;-86
2021/05/31 11:13:54;;;;;;;6.73;6.13;;;32.20;27.00;;;;;;4992343;28;20464;-86
2021/05/31 11:16:20;;;;;;;6.30;5.90;;;32.10;27.40;;;;;;4993495;28;20408;-85
2021/05/31 11:18:47;;;;;;;5.87;5.67;;;32.80;26.70;;;;;;4993300;28;20437;-83
2021/05/31 11:21:36;;;;;;;9.17;6.70;;;33.00;26.20;;;;;;4994050;28;20408;-85
2021/05/31 11:24:14;;;;;;;6.90;6.40;;;33.70;25.90;;;;;;4991631;28;20428;-84
2021/05/31 11:26:42;;;;;;;6.57;5.80;;;33.70;26.20;;;;;;4992886;28;20405;-85
2021/05/31 11:29:10;;;;;;;5.83;5.63;;;33.90;25.90;;;;;;4993998;28;20644;-84
2021/05/31 11:31:38;;;;;;;7.00;6.50;;;35.00;25.70;;;;;;4993488;28;20413;-85
2021/05/31 11:34:05;;;;;;;6.90;6.40;;;34.20;25.70;;;;;;4993797;28;20531;-87
2021/05/31 11:36:40;;;;;;;7.50;7.03;;;33.00;26.50;;;;;;4991467;28;20423;-85
2021/05/31 11:39:10;;;;;;;7.90;6.93;;;33.40;26.60;;;;;;4993570;28;20765;-85
2021/05/31 11:41:44;;;;;;;7.40;6.67;;;32.80;26.20;;;;;;4992778;28;20417;-84
2021/05/31 11:44:30;;;;;;;6.50;6.10;;;31.50;26.60;;;;;;4993215;28;20448;-83
2021/05/31 11:46:58;;;;;;;6.03;5.53;;;31.70;26.50;;;;;;4993132;28;20464;-84
2021/05/31 11:49:25;;;;;;;6.10;5.50;;;32.70;26.30;;;;;;4993337;28;20416;-84
2021/05/31 11:52:00;;;;;;;5.57;5.37;;;33.40;25.90;;;;;;4994349;28;20415;-85
2021/05/31 11:54:30;;;;;;;6.10;5.60;;;33.30;25.80;;;;;;4993618;28;20463;-87
2021/05/31 11:57:00;;;;;;;5.63;5.23;;;33.20;25.70;;;;;;4991897;28;20413;-85
2021/05/31 11:59:33;;;;;;;5.30;5.10;;;33.70;25.30;;;;;;4992691;28;20416;-85
2021/05/31 12:02:00;;;;;;;5.40;5.20;;;33.40;25.50;;;;;;4993005;28;20467;-87
2021/05/31 12:04:26;;;;;;;6.07;5.73;;;34.20;25.60;;;;;;4993134;28;20436;-84
2021/05/31 12:06:58;;;;;;;5.30;4.87;;;34.30;25.60;;;;;;4992438;28;20781;-85
2021/05/31 12:09:24;;;;;;;5.10;4.90;;;34.30;25.60;;;;;;4992963;28;20485;-85
2021/05/31 12:11:52;;;;;;;4.63;4.43;;;34.00;25.20;;;;;;4993062;28;20416;-85
2021/05/31 12:14:23;;;;;;;5.27;5.07;;;34.50;25.20;;;;;;4992871;28;20197;-85
2021/05/31 12:17:00;;;;;;;5.03;4.83;;;32.40;25.30;;;;;;4992035;28;20774;-85
2021/05/31 12:19:27;;;;;;;4.60;4.40;;;33.40;25.40;;;;;;4991668;28;20420;-83
2021/05/31 12:21:58;;;;;;;8.47;5.00;;;33.10;25.20;;;;;;4992562;28;20416;-84
2021/05/31 12:24:29;;;;;;;5.10;4.80;;;33.80;25.00;;;;;;4992883;28;20931;-85
2021/05/31 12:26:56;;;;;;;4.97;4.70;;;33.70;24.70;;;;;;4992936;28;20721;-84
2021/05/31 12:29:36;;;;;;;4.87;4.50;;;33.80;24.90;;;;;;4987634;28;20442;-85
2021/05/31 12:32:07;;;;;;;4.73;4.43;;;33.20;24.60;;;;;;4982766;28;20421;-86
2021/05/31 12:34:34;;;;;;;4.77;4.57;;;33.70;24.80;;;;;;4974101;28;20883;-85
2021/05/31 12:37:01;;;;;;;6.00;5.70;;;33.70;25.40;;;;;;4988736;28;20913;-86
2021/05/31 12:39:28;;;;;;;4.67;4.47;;;34.00;24.80;;;;;;4985806;28;20430;-83
2021/05/31 12:41:55;;;;;;;4.67;4.33;;;34.40;24.70;;;;;;4955907;28;20410;-84
2021/05/31 12:44:22;;;;;;;5.37;4.93;;;34.90;24.40;;;;;;4972938;28;20932;-85
2021/05/31 12:46:47;;;;;;;5.03;4.83;;;35.20;24.00;;;;;;4975781;28;20477;-84
2021/05/31 12:49:15;;;;;;;3.93;3.83;;;34.50;24.10;;;;;;4992710;28;20467;-84
2021/05/31 12:51:52;;;;;;;5.20;5.00;;;34.80;24.20;;;;;;4993147;28;20165;-84
2021/05/31 12:54:19;;;;;;;5.03;4.90;;;34.70;24.30;;;;;;4993666;28;20885;-86
2021/05/31 12:56:44;;;;;;;5.50;5.13;;;34.90;24.10;;;;;;4992043;28;20424;-85
2021/05/31 12:59:11;;;;;;;4.80;4.70;;;34.70;24.20;;;;;;4994047;28;20466;-84
2021/05/31 13:01:37;;;;;;;4.83;4.63;;;34.50;24.40;;;;;;4999138;28;20217;-85
2021/05/31 13:04:03;;;;;;;4.90;4.50;;;34.90;24.30;;;;;;4305594;28;10000705;-84
2021/05/31 13:06:40;;;;;;;5.37;5.20;;;35.10;24.40;;;;;;4995973;28;20519;-89
2021/05/31 13:09:09;;;;;;;4.80;4.60;;;34.00;24.60;;;;;;5005343;28;20236;-92
2021/05/31 13:11:42;;;;;;;5.87;5.00;;;33.40;25.00;;;;;;5009098;28;20421;-89
2021/05/31 13:14:21;;;;;;;5.50;5.30;;;34.20;25.30;;;;;;5011840;28;20467;-88
2021/05/31 13:16:58;;;;;;;5.63;5.23;;;33.80;25.40;;;;;;5011216;28;20419;-89
2021/05/31 13:19:32;;;;;;;5.23;5.10;;;33.50;25.10;;;;;;5006198;28;20432;-90
2021/05/31 13:22:04;;;;;;;6.63;6.03;;;33.70;25.20;;;;;;5010141;28;20496;-89
2021/05/31 13:24:31;;;;;;;11.13;9.27;;;32.50;25.30;;;;;;5002965;28;20454;-89
2021/05/31 13:27:17;;;;;;;6.57;5.33;;;32.80;26.50;;;;;;5002209;28;20424;-87
2021/05/31 13:30:14;;;;;;;5.30;4.90;;;33.10;26.00;;;;;;5002883;28;20474;-90
2021/05/31 13:32:55;;;;;;;5.40;5.20;;;33.40;25.30;;;;;;4999917;28;20466;-89
2021/05/31 13:35:21;;;;;;;4.80;4.60;;;32.90;25.60;;;;;;4998468;28;20475;-90
2021/05/31 13:37:58;;;;;;;5.77;5.47;;;33.80;25.70;;;;;;4997501;28;20938;-91
2021/05/31 13:40:37;;;;;;;5.73;5.53;;;34.20;25.80;;;;;;4983612;28;20958;-90
2021/05/31 13:43:13;;;;;;;9.03;6.60;;;34.20;26.20;;;;;;5001678;28;20511;-92
2021/05/31 13:45:40;;;;;;;6.37;5.97;;;32.20;26.30;;;;;;4986345;28;20440;-88
2021/05/31 13:48:07;;;;;;;5.87;5.57;;;32.40;26.50;;;;;;5000375;28;20416;-91
2021/05/31 13:50:34;;;;;;;5.47;5.20;;;32.70;26.50;;;;;;4997727;28;20432;-87
2021/05/31 13:53:00;;;;;;;5.63;5.43;;;33.40;26.00;;;;;;4996627;28;20780;-90
2021/05/31 13:55:29;;;;;;;6.27;5.90;;;34.20;26.20;;;;;;5001193;28;20480;-91
2021/05/31 13:57:56;;;;;;;5.57;5.17;;;34.50;25.70;;;;;;4999203;28;20465;-89
2021/05/31 14:00:24;;;;;;;5.33;5.23;;;34.70;25.50;;;;;;5002810;28;20496;-91
2021/05/31 14:02:57;;;;;;;6.20;5.40;;;34.10;25.70;;;;;;5004998;28;20417;-89
2021/05/31 14:05:25;;;;;;;5.33;5.03;;;32.70;25.80;;;;;;4999257;28;20486;-89
2021/05/31 14:07:50;;;;;;;5.07;4.80;;;32.50;26.30;;;;;;5003589;28;20417;-92
2021/05/31 14:10:18;;;;;;;4.37;4.27;;;31.50;26.30;;;;;;5002759;28;20452;-88
2021/05/31 14:12:44;;;;;;;5.73;5.37;;;33.20;25.70;;;;;;5003242;28;20426;-89
2021/05/31 14:15:11;;;;;;;8.43;5.47;;;33.10;26.30;;;;;;4997827;28;20491;-89
2021/05/31 14:17:37;;;;;;;5.77;5.47;;;32.70;26.40;;;;;;4997100;28;20526;-90
2021/05/31 14:20:04;;;;;;;5.83;5.30;;;32.60;26.30;;;;;;4996168;28;20432;-89
2021/05/31 14:22:30;;;;;;;5.90;5.60;;;32.30;26.20;;;;;;4996083;28;20431;-90
2021/05/31 14:24:56;;;;;;;6.20;5.60;;;32.90;26.50;;;;;;4997256;28;20421;-88
2021/05/31 14:27:22;;;;;;;5.63;5.33;;;33.70;26.50;;;;;;4998480;28;20180;-89
2021/05/31 14:29:48;;;;;;;4.93;4.63;;;32.80;26.60;;;;;;4996521;28;20432;-88
2021/05/31 14:32:13;;;;;;;5.87;5.47;;;32.60;26.40;;;;;;4981434;28;20422;-87
2021/05/31 14:34:39;;;;;;;5.20;4.80;;;31.80;26.60;;;;;;4979604;28;20560;-90
2021/05/31 14:37:06;;;;;;;5.10;4.90;;;31.80;26.90;;;;;;4977541;28;20178;-90
2021/05/31 14:39:32;;;;;;;5.73;5.33;;;31.70;26.60;;;;;;4978941;28;20177;-87
2021/05/31 14:41:58;;;;;;;5.50;5.20;;;32.30;26.50;;;;;;4992678;28;20517;-90
2021/05/31 14:44:25;;;;;;;5.57;5.17;;;30.40;25.90;;;;;;4977397;28;20417;-88
2021/05/31 14:46:50;;;;;;;4.53;4.53;;;32.10;26.50;;;;;;4982192;28;20165;-88
2021/05/31 14:49:16;;;;;;;6.97;6.30;;;31.60;26.60;;;;;;4995770;28;20424;-90
2021/05/31 14:51:42;;;;;;;9.03;5.77;;;31.30;27.00;;;;;;4997463;28;20200;-89
2021/05/31 14:54:16;;;;;;;5.37;5.20;;;29.90;27.90;;;;;;5009172;28;20181;-93
2021/05/31 14:56:54;;;;;;;5.17;5.07;;;28.80;28.50;;;;;;5007342;28;20268;-90
2021/05/31 14:59:20;;;;;;;5.27;5.07;;;28.40;28.70;;;;;;5003874;28;20559;-87
2021/05/31 15:01:49;;;;;;;5.50;5.30;;;28.20;29.80;;;;;;5001419;28;20468;-87
2021/05/31 15:04:17;;;;;;;6.53;6.13;;;27.40;29.40;;;;;;4999011;28;20444;-89
2021/05/31 15:06:47;;;;;;;5.40;5.20;;;27.20;30.00;;;;;;4996586;28;20435;-88
2021/05/31 15:09:13;;;;;;;5.87;5.40;;;26.90;29.90;;;;;;4995510;28;20421;-89
2021/05/31 15:11:39;;;;;;;5.63;5.33;;;26.30;30.10;;;;;;4996215;28;20420;-88
2021/05/31 15:14:04;;;;;;;6.00;5.50;;;26.60;30.70;;;;;;4995514;28;20486;-91
2021/05/31 15:16:32;;;;;;;5.90;5.50;;;26.60;30.90;;;;;;4996930;28;20475;-90
2021/05/31 15:19:03;;;;;;;15.60;6.20;;;26.30;30.60;;;;;;5003564;28;20774;-93
2021/05/31 15:21:30;;;;;;;5.60;5.07;;;26.30;31.50;;;;;;5004448;28;20448;-90
2021/05/31 15:24:00;;;;;;;6.00;5.40;;;27.20;31.50;;;;;;5002325;28;20516;-90
2021/05/31 15:26:26;;;;;;;5.20;4.80;;;26.40;31.50;;;;;;5002202;28;20461;-92
2021/05/31 15:28:55;;;;;;;5.40;5.17;;;27.20;31.60;;;;;;5000814;28;20419;-91
2021/05/31 15:31:20;;;;;;;5.50;5.20;;;26.50;32.10;;;;;;5002082;28;20185;-89
2021/05/31 15:33:47;;;;;;;5.53;5.23;;;26.40;31.10;;;;;;4999620;28;20424;-88
2021/05/31 15:36:14;;;;;;;4.60;4.43;;;26.60;31.20;;;;;;4999126;28;20173;-91
2021/05/31 15:38:44;;;;;;;4.93;4.73;;;27.40;31.90;;;;;;5003176;28;20491;-89
2021/05/31 15:41:10;;;;;;;5.53;5.33;;;26.50;31.60;;;;;;5004865;28;20448;-86
2021/05/31 15:43:36;;;;;;;6.30;5.80;;;26.40;32.20;;;;;;5006920;28;20409;-90
2021/05/31 15:46:03;;;;;;;5.87;5.67;;;26.20;31.50;;;;;;5003216;28;20452;-88
2021/05/31 15:48:29;;;;;;;5.53;5.23;;;26.40;31.30;;;;;;5006391;28;20417;-86
2021/05/31 15:50:56;;;;;;;4.80;4.70;;;26.00;32.40;;;;;;5001950;28;20443;-91
2021/05/31 15:53:25;;;;;;;5.80;5.50;;;26.00;31.30;;;;;;5002388;28;20483;-91
2021/05/31 15:55:59;;;;;;;6.63;6.23;;;26.20;31.40;;;;;;4991017;28;20512;-93
2021/05/31 15:58:25;;;;;;;6.77;6.17;;;25.90;31.60;;;;;;5006003;28;20423;-93
2021/05/31 16:00:54;;;;;;;6.03;5.73;;;26.10;32.00;;;;;;5005751;28;20860;-89
2021/05/31 16:03:22;;;;;;;5.30;5.00;;;26.60;32.80;;;;;;4986257;28;20180;-93
2021/05/31 16:05:48;;;;;;;6.50;6.10;;;25.90;32.90;;;;;;5005586;28;20428;-90
2021/05/31 16:08:14;;;;;;;5.10;4.60;;;25.90;32.60;;;;;;5003100;28;20544;-88
2021/05/31 16:11:00;;;;;;;6.07;5.87;;;25.70;32.70;;;;;;5006485;28;20165;-92
2021/05/31 16:13:27;;;;;;;6.57;6.23;;;25.40;32.40;;;;;;5010837;28;20468;-90
2021/05/31 16:15:54;;;;;;;5.77;5.37;;;25.40;33.10;;;;;;5010659;28;20470;-91
2021/05/31 16:18:23;;;;;;;5.17;4.97;;;25.70;32.80;;;;;;5223758;23;20589;-91
2021/05/31 16:20:50;;;;;;;6.87;6.30;;;25.40;33.80;;;;;;5017183;28;20440;-89
2021/05/31 16:23:26;;;;;;;5.77;5.47;;;25.40;33.60;;;;;;4993430;28;20500;-91
2021/05/31 16:25:52;;;;;;;5.27;5.03;;;25.40;33.00;;;;;;4992037;28;20415;-92
2021/05/31 16:28:19;;;;;;;5.80;5.30;;;25.60;33.40;;;;;;4988208;28;20483;-89
2021/05/31 16:30:45;;;;;;;6.40;6.00;;;25.60;33.00;;;;;;5144291;23;20488;-90
2021/05/31 16:33:13;;;;;;;5.10;4.90;;;25.70;33.30;;;;;;5013088;28;20484;-89
2021/05/31 16:35:40;;;;;;;5.97;5.40;;;27.20;33.20;;;;;;4999916;28;20512;-90
2021/05/31 16:38:07;;;;;;;5.10;4.90;;;25.70;32.90;;;;;;4999754;28;20447;-88
2021/05/31 16:40:49;;;;;;;6.30;5.80;;;25.50;32.70;;;;;;4999171;28;20419;-88
2021/05/31 16:43:15;;;;;;;5.03;4.83;;;25.40;32.80;;;;;;4998818;28;20420;-88
2021/05/31 16:45:40;;;;;;;5.37;5.17;;;25.20;33.20;;;;;;5000134;28;20515;-86
2021/05/31 16:48:06;;;;;;;5.63;5.33;;;25.20;33.10;;;;;;4999672;28;20629;-89
2021/05/31 16:50:32;;;;;;;7.07;5.93;;;25.20;33.20;;;;;;4999117;28;20236;-90
2021/05/31 16:52:58;;;;;;;5.60;5.30;;;25.10;33.00;;;;;;4999710;28;20440;-89
2021/05/31 16:55:25;;;;;;;5.27;5.10;;;25.30;33.50;;;;;;5000096;28;20402;-89